Time;durP1;ratioP1;P1;durP2;ratioP2;P2;SDS_P1;SDS_P2;PMS_P1;PMS_P2;Temp;Humidity;BMP_temperature;BMP_pressure;BME280_temperature;BME280_humidity;BME280_pressure;Samples;Min_cycle;Max_cycle;Signal;HPM_P1;HPM_P2
2022/04/12 00:01:11;;;;;;;3.97;2.20;;;12.80;1.00;;;;;;5061218;28;20450;-80
2022/04/12 00:03:40;;;;;;;3.03;2.50;;;12.70;1.00;;;;;;5059536;28;20474;-82
2022/04/12 00:06:09;;;;;;;3.23;2.47;;;12.70;1.00;;;;;;5062340;28;22544;-81
2022/04/12 00:08:38;;;;;;;3.10;2.23;;;12.70;1.00;;;;;;5060475;28;20569;-80
2022/04/12 00:11:06;;;;;;;2.40;1.83;;;12.60;1.00;;;;;;5056351;28;20453;-80
2022/04/12 00:13:35;;;;;;;5.77;2.20;;;12.60;1.00;;;;;;5061341;28;20527;-81
2022/04/12 00:16:04;;;;;;;3.20;2.00;;;12.70;1.00;;;;;;5057858;28;20498;-80
2022/04/12 00:21:17;;;;;;;2.47;2.00;;;12.60;1.00;;;;;;5063462;28;20447;-80
2022/04/12 00:23:47;;;;;;;2.43;1.80;;;12.50;1.00;;;;;;5061113;28;20479;-82
2022/04/12 00:26:16;;;;;;;3.23;2.20;;;12.50;1.00;;;;;;5058963;28;20467;-80
2022/04/12 00:28:44;;;;;;;4.30;2.67;;;12.50;1.00;;;;;;5065566;28;20548;-80
2022/04/12 00:31:12;;;;;;;4.10;2.10;;;12.60;1.00;;;;;;5058687;28;20460;-82
2022/04/12 00:33:41;;;;;;;2.50;2.20;;;12.60;1.00;;;;;;5057555;28;20479;-80
2022/04/12 00:36:09;;;;;;;2.70;2.20;;;12.60;1.00;;;;;;5062185;28;20494;-80
2022/04/12 00:38:38;;;;;;;3.80;2.10;;;12.60;1.00;;;;;;5056064;28;20538;-80
2022/04/12 00:41:10;;;;;;;2.47;1.83;;;12.50;1.00;;;;;;5061286;28;20442;-80
2022/04/12 00:43:39;;;;;;;2.50;1.87;;;12.40;1.00;;;;;;5056943;28;20481;-80
2022/04/12 00:46:08;;;;;;;4.00;2.17;;;12.40;1.00;;;;;;5058583;28;20508;-80
2022/04/12 00:48:36;;;;;;;4.37;2.60;;;12.30;1.00;;;;;;5062273;28;20470;-80
2022/04/12 00:51:04;;;;;;;2.80;1.90;;;12.30;1.00;;;;;;5057547;28;20454;-80
2022/04/12 00:53:33;;;;;;;2.20;1.83;;;12.30;1.00;;;;;;5063536;28;20492;-81
2022/04/12 00:56:01;;;;;;;4.13;1.70;;;12.20;1.00;;;;;;5062974;28;20470;-80
2022/04/12 00:58:30;;;;;;;3.63;2.57;;;12.10;1.00;;;;;;5061731;28;20458;-80
2022/04/12 01:00:59;;;;;;;2.27;2.07;;;12.00;1.00;;;;;;5057427;28;20513;-80
2022/04/12 01:03:27;;;;;;;2.13;1.63;;;12.00;1.00;;;;;;5064259;28;20481;-80
2022/04/12 01:05:56;;;;;;;3.10;1.80;;;11.90;1.00;;;;;;5060859;28;20446;-79
2022/04/12 01:08:24;;;;;;;2.43;1.90;;;11.90;1.00;;;;;;5067855;28;20486;-80
2022/04/12 01:10:53;;;;;;;2.20;1.70;;;12.00;1.00;;;;;;5063507;28;20464;-80
2022/04/12 01:13:22;;;;;;;2.47;2.07;;;11.90;1.00;;;;;;5062406;28;20477;-80
2022/04/12 01:15:51;;;;;;;1.93;1.60;;;11.90;1.00;;;;;;5060342;28;21015;-81
2022/04/12 01:18:20;;;;;;;2.40;1.83;;;11.80;1.00;;;;;;5056481;28;20513;-81
2022/04/12 01:20:48;;;;;;;3.80;1.90;;;11.80;1.00;;;;;;5055334;28;20472;-80
2022/04/12 01:23:19;;;;;;;2.50;2.13;;;11.80;1.00;;;;;;5058909;28;20845;-81
2022/04/12 01:25:49;;;;;;;2.80;2.17;;;11.80;1.00;;;;;;5061429;28;20470;-79
2022/04/12 01:28:18;;;;;;;3.23;2.63;;;11.80;1.00;;;;;;5057238;28;20487;-79
2022/04/12 01:30:46;;;;;;;1.90;1.70;;;11.80;1.00;;;;;;5066458;28;20946;-80
2022/04/12 01:33:14;;;;;;;2.33;2.10;;;11.80;1.00;;;;;;5059723;28;20482;-79
2022/04/12 01:35:42;;;;;;;2.50;1.80;;;11.80;1.00;;;;;;5062749;28;20455;-80
2022/04/12 01:38:10;;;;;;;3.13;2.93;;;11.80;1.00;;;;;;5061686;28;20447;-79
2022/04/12 01:40:38;;;;;;;1.60;1.50;;;11.80;1.00;;;;;;5062900;28;20473;-78
2022/04/12 01:43:10;;;;;;;3.37;2.20;;;11.90;1.00;;;;;;5061049;28;21009;-79
2022/04/12 01:45:38;;;;;;;3.03;2.03;;;11.80;1.70;;;;;;5063170;28;20464;-79
2022/04/12 01:48:07;;;;;;;3.10;2.50;;;11.80;1.00;;;;;;5060971;28;20475;-81
2022/04/12 01:50:35;;;;;;;2.60;2.23;;;11.80;1.00;;;;;;5061821;28;20454;-80
2022/04/12 01:53:03;;;;;;;2.23;1.83;;;11.70;1.00;;;;;;5061399;28;20455;-81
2022/04/12 01:55:31;;;;;;;2.83;1.77;;;11.70;1.00;;;;;;5061282;28;20463;-80
2022/04/12 01:57:59;;;;;;;3.37;2.37;;;11.70;1.00;;;;;;5059752;28;20451;-81
2022/04/12 02:00:29;;;;;;;2.77;1.90;;;11.70;1.00;;;;;;5061638;28;20509;-81
2022/04/12 02:02:57;;;;;;;2.03;1.83;;;11.60;1.00;;;;;;5054995;28;20519;-81
2022/04/12 02:05:25;;;;;;;2.50;1.70;;;11.60;1.00;;;;;;5062175;28;20455;-80
2022/04/12 02:07:54;;;;;;;3.60;2.50;;;11.60;1.20;;;;;;5059076;28;20467;-80
2022/04/12 02:10:22;;;;;;;1.93;1.50;;;11.60;2.00;;;;;;5058695;28;20452;-80
2022/04/12 02:12:51;;;;;;;2.80;1.77;;;11.60;1.40;;;;;;5058312;28;21127;-81
2022/04/12 02:15:19;;;;;;;2.07;1.90;;;11.70;1.00;;;;;;5061348;28;20440;-81
2022/04/12 02:17:48;;;;;;;4.13;1.90;;;11.80;1.00;;;;;;5060333;28;20458;-81
2022/04/12 02:20:17;;;;;;;2.93;2.17;;;11.90;1.00;;;;;;5063229;28;20447;-81
2022/04/12 02:22:45;;;;;;;4.03;2.53;;;12.00;1.00;;;;;;5063371;28;20446;-81
2022/04/12 02:25:13;;;;;;;6.20;2.07;;;12.00;1.00;;;;;;5059362;28;20533;-81
2022/04/12 02:27:41;;;;;;;3.30;2.40;;;12.20;1.00;;;;;;5063446;28;21018;-81
2022/04/12 02:30:12;;;;;;;3.43;2.43;;;12.50;1.00;;;;;;5054907;28;20959;-82
2022/04/12 02:32:41;;;;;;;2.03;1.83;;;12.20;1.00;;;;;;5062569;28;20455;-81
2022/04/12 02:35:11;;;;;;;2.60;2.00;;;12.30;1.00;;;;;;5060097;28;20486;-82
2022/04/12 02:37:39;;;;;;;2.80;2.00;;;12.30;1.00;;;;;;5058462;28;20470;-81
2022/04/12 02:40:08;;;;;;;2.97;2.13;;;12.50;1.00;;;;;;5059138;28;20482;-80
2022/04/12 02:42:37;;;;;;;2.10;1.60;;;12.40;1.00;;;;;;5061547;28;20438;-81
2022/04/12 02:45:06;;;;;;;2.77;1.83;;;12.70;1.00;;;;;;5062386;28;20469;-82
2022/04/12 02:47:34;;;;;;;3.63;2.67;;;12.30;1.00;;;;;;5067833;28;20469;-81
2022/04/12 02:50:02;;;;;;;3.23;1.90;;;12.00;1.00;;;;;;5066936;28;20474;-82
2022/04/12 02:52:32;;;;;;;1.70;1.60;;;11.90;1.00;;;;;;5065426;28;20462;-81
2022/04/12 02:55:00;;;;;;;1.90;1.40;;;11.90;1.00;;;;;;5065704;28;20980;-80
2022/04/12 02:57:28;;;;;;;3.40;2.13;;;11.90;1.00;;;;;;5060878;28;20465;-81
2022/04/12 02:59:56;;;;;;;2.60;1.77;;;11.70;1.00;;;;;;5062029;28;20466;-81
2022/04/12 03:02:24;;;;;;;2.67;1.67;;;11.70;1.00;;;;;;5066354;28;20469;-82
2022/04/12 03:04:52;;;;;;;2.90;1.93;;;11.70;1.00;;;;;;5059888;28;20578;-80
2022/04/12 03:07:21;;;;;;;2.07;1.70;;;11.70;1.00;;;;;;5063185;28;20455;-81
2022/04/12 03:09:50;;;;;;;3.00;2.13;;;11.80;1.00;;;;;;5065359;28;20462;-80
2022/04/12 03:12:18;;;;;;;4.37;1.57;;;11.90;1.00;;;;;;5062347;28;20446;-81
2022/04/12 03:14:46;;;;;;;5.20;2.43;;;12.00;1.00;;;;;;5061814;28;20486;-81
2022/04/12 03:17:17;;;;;;;3.50;2.03;;;12.10;1.00;;;;;;5069464;28;20455;-81
2022/04/12 03:19:45;;;;;;;2.63;2.00;;;12.10;1.00;;;;;;5064708;28;20465;-80
2022/04/12 03:22:13;;;;;;;4.97;1.80;;;12.10;1.00;;;;;;5065775;28;20465;-82
2022/04/12 03:24:41;;;;;;;3.97;2.20;;;12.30;1.00;;;;;;5061442;28;20479;-80
2022/04/12 03:27:11;;;;;;;3.33;2.03;;;12.10;1.00;;;;;;5059568;28;20447;-80
2022/04/12 03:29:39;;;;;;;2.80;2.27;;;12.20;1.50;;;;;;5063897;28;20474;-81
2022/04/12 03:32:08;;;;;;;3.57;1.90;;;12.20;1.00;;;;;;5059386;28;20538;-80
2022/04/12 03:34:39;;;;;;;2.53;2.30;;;12.20;1.00;;;;;;5063198;28;20505;-81
2022/04/12 03:37:07;;;;;;;2.30;1.70;;;12.10;1.00;;;;;;5063816;28;21057;-80
2022/04/12 03:39:35;;;;;;;3.90;2.17;;;12.10;1.00;;;;;;5061828;28;20468;-81
2022/04/12 03:42:04;;;;;;;3.63;2.80;;;12.10;1.00;;;;;;5067059;28;20504;-79
2022/04/12 03:44:34;;;;;;;2.80;2.10;;;12.20;1.00;;;;;;5062407;28;20482;-81
2022/04/12 03:47:02;;;;;;;2.10;1.90;;;12.20;1.00;;;;;;5063651;28;20539;-81
2022/04/12 03:49:30;;;;;;;3.40;1.93;;;12.20;1.00;;;;;;5063553;28;20472;-81
2022/04/12 03:51:58;;;;;;;2.30;1.90;;;12.20;1.00;;;;;;5067176;28;20500;-81
2022/04/12 03:54:27;;;;;;;2.43;1.67;;;12.10;1.00;;;;;;5057672;28;20474;-80
2022/04/12 03:56:55;;;;;;;2.17;1.97;;;12.10;1.00;;;;;;5059379;28;20455;-79
2022/04/12 03:59:24;;;;;;;2.20;1.83;;;12.10;1.00;;;;;;5058262;28;20446;-78
2022/04/12 04:01:53;;;;;;;1.80;1.70;;;12.10;1.00;;;;;;5061523;28;20504;-79
2022/04/12 04:04:22;;;;;;;2.40;2.03;;;11.90;1.00;;;;;;5057319;28;20488;-80
2022/04/12 04:06:50;;;;;;;3.57;2.37;;;11.70;1.00;;;;;;5056142;28;20585;-81
2022/04/12 04:09:18;;;;;;;2.87;1.80;;;11.60;1.00;;;;;;5061770;28;21040;-81
2022/04/12 04:11:46;;;;;;;2.23;1.93;;;11.50;1.00;;;;;;5062863;28;20454;-80
2022/04/12 04:14:15;;;;;;;2.70;2.03;;;11.50;1.00;;;;;;5059137;28;20529;-79
2022/04/12 04:16:43;;;;;;;2.53;1.90;;;11.40;1.00;;;;;;5061390;28;20459;-78
2022/04/12 04:19:13;;;;;;;2.50;2.00;;;11.30;1.00;;;;;;5059592;28;20566;-79
2022/04/12 04:21:41;;;;;;;2.50;1.73;;;11.30;1.00;;;;;;5056779;28;20452;-78
2022/04/12 04:24:09;;;;;;;4.30;2.33;;;11.20;1.00;;;;;;5056265;28;20888;-81
2022/04/12 04:26:38;;;;;;;4.17;1.90;;;11.20;1.00;;;;;;5052389;28;21070;-79
2022/04/12 04:29:07;;;;;;;2.90;2.03;;;11.10;1.00;;;;;;5057448;28;21248;-79
2022/04/12 04:31:35;;;;;;;2.70;2.13;;;11.20;1.00;;;;;;5059389;28;20463;-80
2022/04/12 04:34:03;;;;;;;2.63;1.60;;;11.20;1.00;;;;;;5061878;28;20479;-78
2022/04/12 04:36:33;;;;;;;3.47;1.97;;;11.20;2.90;;;;;;5058407;28;20462;-78
2022/04/12 04:39:01;;;;;;;3.10;2.03;;;11.10;1.00;;;;;;5058306;28;20447;-79
2022/04/12 04:41:30;;;;;;;3.43;2.20;;;11.00;1.00;;;;;;5059142;28;20450;-79
2022/04/12 04:43:58;;;;;;;2.20;1.63;;;11.00;1.00;;;;;;5063507;28;20539;-78
2022/04/12 04:46:26;;;;;;;1.70;1.57;;;11.00;12.10;;;;;;5057029;28;20470;-79
2022/04/12 04:48:54;;;;;;;2.50;2.30;;;11.00;2.30;;;;;;5056910;28;20492;-79
2022/04/12 04:51:23;;;;;;;2.30;1.80;;;11.00;3.30;;;;;;5059904;28;20493;-78
2022/04/12 04:53:58;;;;;;;1.97;1.87;;;10.90;4.40;;;;;;5058669;28;20481;-79
2022/04/12 04:56:27;;;;;;;2.93;2.17;;;10.90;4.10;;;;;;5055750;28;20486;-78
2022/04/12 04:58:57;;;;;;;3.40;2.53;;;10.90;5.70;;;;;;5059082;28;20493;-78
2022/04/12 05:01:25;;;;;;;3.60;1.77;;;10.90;4.10;;;;;;5054372;28;20464;-79
2022/04/12 05:03:53;;;;;;;3.40;2.20;;;10.90;3.20;;;;;;5051576;28;20558;-80
2022/04/12 05:06:22;;;;;;;5.50;2.10;;;10.80;3.50;;;;;;5055588;28;20462;-80
2022/04/12 05:08:50;;;;;;;2.17;1.50;;;10.70;4.00;;;;;;5060075;28;20841;-79
2022/04/12 05:11:19;;;;;;;2.30;1.83;;;11.20;5.00;;;;;;5064189;28;20830;-79
2022/04/12 05:13:47;;;;;;;2.07;1.90;;;11.20;4.80;;;;;;5063185;28;20485;-80
2022/04/12 05:16:16;;;;;;;2.23;1.50;;;11.10;4.40;;;;;;5063119;28;20449;-81
2022/04/12 05:18:44;;;;;;;2.10;1.73;;;11.20;3.10;;;;;;5060155;28;20930;-80
2022/04/12 05:21:12;;;;;;;4.10;1.97;;;11.30;4.60;;;;;;5065345;28;20458;-81
2022/04/12 05:23:41;;;;;;;2.30;2.10;;;11.30;5.60;;;;;;5060557;28;20478;-79
2022/04/12 05:26:09;;;;;;;2.90;2.00;;;11.20;6.10;;;;;;5058484;28;20450;-80
2022/04/12 05:28:38;;;;;;;3.43;2.23;;;11.10;5.80;;;;;;5065545;28;20455;-80
2022/04/12 05:31:06;;;;;;;3.00;1.77;;;11.20;5.20;;;;;;5068783;28;20481;-81
2022/04/12 05:33:35;;;;;;;4.53;1.90;;;11.00;6.60;;;;;;5052424;28;20475;-81
2022/04/12 05:36:04;;;;;;;2.10;1.90;;;11.10;18.10;;;;;;5068264;28;20971;-81
2022/04/12 05:38:32;;;;;;;2.70;1.97;;;11.10;6.10;;;;;;5067326;28;20878;-82
2022/04/12 05:41:00;;;;;;;3.13;2.30;;;11.20;7.00;;;;;;5067894;28;21126;-81
2022/04/12 05:43:28;;;;;;;2.67;2.00;;;11.20;8.00;;;;;;5066748;28;20477;-79
2022/04/12 05:45:58;;;;;;;3.47;2.20;;;11.20;8.10;;;;;;5053413;28;20463;-81
2022/04/12 05:48:26;;;;;;;3.03;2.03;;;11.20;9.40;;;;;;5056044;28;20457;-81
2022/04/12 05:50:54;;;;;;;4.27;3.87;;;11.10;11.00;;;;;;5068980;28;20478;-80
2022/04/12 05:53:22;;;;;;;4.63;3.80;;;11.20;11.20;;;;;;5058635;28;20490;-79
2022/04/12 05:55:50;;;;;;;5.93;5.33;;;11.20;12.60;;;;;;5066021;28;20993;-80
2022/04/12 05:58:19;;;;;;;6.63;4.77;;;11.20;12.90;;;;;;5061998;28;20443;-79
2022/04/12 06:00:47;;;;;;;6.33;5.30;;;11.20;14.30;;;;;;5062069;28;20564;-79
2022/04/12 06:03:17;;;;;;;5.03;4.37;;;11.30;15.10;;;;;;5058428;28;20497;-79
2022/04/12 06:05:45;;;;;;;6.60;4.33;;;11.30;16.10;;;;;;5058442;28;20536;-79
2022/04/12 06:08:13;;;;;;;4.60;3.80;;;11.30;17.00;;;;;;5062103;28;20454;-78
2022/04/12 06:10:42;;;;;;;5.03;3.70;;;11.40;17.20;;;;;;5056019;28;21159;-80
2022/04/12 06:13:10;;;;;;;5.50;4.20;;;11.50;18.90;;;;;;5058393;28;20956;-82
2022/04/12 06:15:38;;;;;;;2.67;2.47;;;11.60;21.00;;;;;;5053365;28;20462;-78
2022/04/12 06:18:08;;;;;;;2.30;1.97;;;11.70;16.00;;;;;;5057395;28;21033;-79
2022/04/12 06:20:37;;;;;;;2.83;2.17;;;11.90;14.60;;;;;;5059416;28;20513;-79
2022/04/12 06:23:06;;;;;;;2.40;1.90;;;12.10;13.80;;;;;;5060869;28;21057;-79
2022/04/12 06:25:34;;;;;;;1.70;1.60;;;12.30;13.00;;;;;;5060234;28;20491;-79
2022/04/12 06:28:03;;;;;;;2.10;1.77;;;12.20;10.60;;;;;;5058514;28;20454;-80
2022/04/12 06:30:31;;;;;;;3.23;1.87;;;12.20;10.80;;;;;;5057840;28;20468;-79
2022/04/12 06:33:00;;;;;;;1.67;1.50;;;12.30;11.90;;;;;;5058728;28;20454;-79
2022/04/12 06:35:28;;;;;;;2.40;2.20;;;12.60;12.10;;;;;;5055175;28;20452;-79
2022/04/12 06:37:57;;;;;;;1.70;1.60;;;12.60;12.00;;;;;;5059918;28;20464;-79
2022/04/12 06:40:26;;;;;;;2.10;1.90;;;12.80;13.40;;;;;;5062363;28;20451;-79
2022/04/12 06:42:54;;;;;;;3.07;2.13;;;12.90;12.70;;;;;;5057924;28;20455;-78
2022/04/12 06:45:23;;;;;;;3.20;2.30;;;13.00;12.30;;;;;;5058243;28;20441;-79
2022/04/12 06:47:55;;;;;;;2.27;2.07;;;13.20;13.50;;;;;;5057499;28;20450;-78
2022/04/12 06:50:24;;;;;;;3.63;2.10;;;13.30;13.40;;;;;;5057731;28;20451;-78
2022/04/12 06:52:53;;;;;;;1.80;1.70;;;13.40;12.70;;;;;;5058500;28;20519;-78
2022/04/12 06:55:23;;;;;;;5.00;2.23;;;13.50;12.10;;;;;;5056077;28;20467;-78
2022/04/12 06:57:51;;;;;;;4.93;1.90;;;13.40;10.20;;;;;;5057338;28;20500;-79
2022/04/12 07:00:20;;;;;;;2.90;2.03;;;13.40;12.70;;;;;;5057991;28;20813;-79
2022/04/12 07:02:48;;;;;;;5.83;2.10;;;13.50;10.90;;;;;;5058127;28;20459;-78
2022/04/12 07:05:16;;;;;;;3.13;2.30;;;13.60;11.30;;;;;;5057634;28;20461;-78
2022/04/12 07:07:45;;;;;;;2.73;1.90;;;13.70;12.10;;;;;;5058087;28;20457;-79
2022/04/12 07:10:15;;;;;;;3.53;2.60;;;13.80;12.00;;;;;;5057535;28;20455;-79
2022/04/12 07:12:46;;;;;;;3.20;2.23;;;13.70;12.10;;;;;;5059208;28;20476;-80
2022/04/12 07:15:15;;;;;;;3.93;2.60;;;13.90;12.50;;;;;;5056335;28;20480;-79
2022/04/12 07:17:43;;;;;;;3.40;2.47;;;14.10;14.50;;;;;;5055428;28;20455;-78
2022/04/12 07:20:12;;;;;;;2.97;2.40;;;14.10;13.70;;;;;;5056359;28;20455;-79
2022/04/12 07:22:40;;;;;;;5.27;2.50;;;14.20;13.80;;;;;;5053369;28;20453;-78
2022/04/12 07:25:09;;;;;;;5.20;2.00;;;14.30;14.40;;;;;;5058508;28;20486;-80
2022/04/12 07:27:38;;;;;;;2.10;1.73;;;14.40;12.40;;;;;;5059283;28;20480;-79
2022/04/12 07:30:09;;;;;;;2.73;2.00;;;14.40;10.60;;;;;;5057516;28;20952;-79
2022/04/12 07:32:37;;;;;;;3.50;1.80;;;14.50;10.40;;;;;;5062480;28;20506;-79
2022/04/12 07:35:07;;;;;;;3.93;1.53;;;14.50;22.40;;;;;;5060458;28;20479;-79
2022/04/12 07:37:35;;;;;;;3.00;2.10;;;14.60;13.00;;;;;;5058885;28;21748;-79
2022/04/12 07:40:05;;;;;;;2.40;2.20;;;14.80;15.10;;;;;;5060634;28;20447;-79
2022/04/12 07:42:33;;;;;;;3.37;2.40;;;15.00;13.60;;;;;;5062654;28;20990;-78
2022/04/12 07:45:01;;;;;;;3.00;2.10;;;15.00;11.80;;;;;;5057205;28;21091;-80
2022/04/12 07:47:34;;;;;;;3.93;2.10;;;14.90;12.20;;;;;;5063101;28;20455;-79
2022/04/12 07:50:02;;;;;;;1.83;1.73;;;15.10;11.70;;;;;;5057142;28;20470;-80
2022/04/12 07:52:30;;;;;;;2.57;2.17;;;15.20;13.40;;;;;;5058804;28;20504;-79
2022/04/12 07:54:58;;;;;;;1.73;1.63;;;15.20;14.40;;;;;;5060866;28;21118;-81
2022/04/12 07:57:28;;;;;;;2.23;1.80;;;15.30;14.90;;;;;;5056015;28;20524;-81
2022/04/12 07:59:56;;;;;;;4.17;1.97;;;15.30;13.70;;;;;;5061964;28;20488;-79
2022/04/12 08:02:24;;;;;;;3.13;2.70;;;15.30;14.80;;;;;;5056256;28;20847;-79
2022/04/12 08:04:55;;;;;;;3.07;2.13;;;15.20;15.30;;;;;;5062715;28;20473;-79
2022/04/12 08:07:23;;;;;;;1.80;1.50;;;15.30;16.10;;;;;;5062985;28;20465;-80
2022/04/12 08:09:51;;;;;;;3.83;2.17;;;15.40;16.50;;;;;;5063221;28;20442;-80
2022/04/12 08:12:19;;;;;;;1.93;1.73;;;15.40;14.70;;;;;;5060151;28;20493;-80
2022/04/12 08:14:47;;;;;;;2.93;1.50;;;15.30;16.40;;;;;;5062572;28;20485;-81
2022/04/12 08:17:16;;;;;;;2.10;1.57;;;15.30;15.50;;;;;;5064535;28;20458;-80
2022/04/12 08:19:44;;;;;;;2.20;1.87;;;15.40;17.30;;;;;;5061731;28;20508;-80
2022/04/12 08:22:13;;;;;;;2.13;1.93;;;15.40;17.70;;;;;;5058638;28;20535;-80
2022/04/12 08:25:01;;;;;;;2.23;1.83;;;15.50;18.10;;;;;;5060118;28;20472;-80
2022/04/12 08:27:30;;;;;;;3.53;2.00;;;15.50;17.90;;;;;;5061066;28;20447;-80
2022/04/12 08:29:58;;;;;;;4.43;1.80;;;15.40;17.50;;;;;;5060123;28;20516;-77
2022/04/12 08:32:29;;;;;;;2.10;1.77;;;15.60;18.80;;;;;;5060328;28;21218;-80
2022/04/12 08:34:58;;;;;;;2.00;1.50;;;15.60;19.40;;;;;;5061671;28;20560;-81
2022/04/12 08:37:28;;;;;;;2.90;1.90;;;15.70;20.40;;;;;;5058389;28;20461;-80
2022/04/12 08:39:56;;;;;;;2.60;1.50;;;15.70;18.90;;;;;;5061208;28;20463;-80
2022/04/12 08:42:24;;;;;;;2.03;1.50;;;15.80;19.80;;;;;;5060444;28;20460;-80
2022/04/12 08:44:53;;;;;;;2.80;1.60;;;15.90;20.70;;;;;;5060909;28;20473;-80
2022/04/12 08:47:22;;;;;;;1.70;1.33;;;16.00;21.40;;;;;;5060724;28;20824;-79
2022/04/12 08:49:50;;;;;;;5.03;1.57;;;16.10;20.50;;;;;;5059807;28;20466;-81
2022/04/12 08:52:19;;;;;;;1.40;1.30;;;15.90;20.70;;;;;;5058100;28;20487;-82
2022/04/12 08:54:49;;;;;;;2.50;2.27;;;16.00;22.00;;;;;;5058149;28;20469;-80
2022/04/12 08:57:17;;;;;;;3.20;1.37;;;16.00;19.80;;;;;;5058234;28;20466;-80
2022/04/12 08:59:46;;;;;;;1.70;1.53;;;16.10;22.30;;;;;;5061185;28;20464;-80
2022/04/12 09:02:14;;;;;;;3.30;1.67;;;16.20;22.50;;;;;;5063049;28;20462;-78
2022/04/12 09:04:43;;;;;;;2.60;1.40;;;16.30;23.10;;;;;;5056983;28;20852;-80
2022/04/12 09:07:13;;;;;;;2.80;1.40;;;16.30;23.20;;;;;;5056455;28;20452;-79
2022/04/12 09:09:43;;;;;;;2.73;1.53;;;16.30;22.70;;;;;;5059415;28;20496;-81
2022/04/12 09:12:14;;;;;;;1.57;1.23;;;16.30;21.90;;;;;;5055653;28;20470;-79
2022/04/12 09:14:47;;;;;;;2.33;1.40;;;16.40;23.60;;;;;;5059879;28;20522;-79
2022/04/12 09:17:19;;;;;;;1.63;1.33;;;16.40;24.30;;;;;;5062611;28;20868;-80
2022/04/12 09:19:49;;;;;;;1.43;1.10;;;16.60;25.90;;;;;;5061463;28;20464;-80
2022/04/12 09:22:19;;;;;;;1.23;1.13;;;16.60;24.30;;;;;;5060492;28;20454;-80
2022/04/12 09:24:49;;;;;;;1.70;1.27;;;16.70;24.80;;;;;;5056979;28;21051;-79
2022/04/12 09:27:21;;;;;;;4.87;1.20;;;16.70;24.50;;;;;;5062286;28;20533;-80
2022/04/12 09:29:51;;;;;;;2.03;1.10;;;16.80;24.30;;;;;;5059597;28;20450;-81
2022/04/12 09:32:21;;;;;;;1.87;1.20;;;16.80;22.90;;;;;;5058820;28;20503;-82
2022/04/12 09:34:49;;;;;;;2.67;1.13;;;16.90;23.80;;;;;;5059851;28;20480;-80
2022/04/12 09:37:24;;;;;;;1.30;1.10;;;17.00;25.90;;;;;;5060367;28;20471;-80
2022/04/12 09:40:04;;;;;;;1.40;1.00;;;17.10;42.80;;;;;;5063180;28;20466;-81
2022/04/12 09:42:45;;;;;;;2.90;1.13;;;17.20;25.60;;;;;;5064033;28;21299;-80
2022/04/12 09:45:15;;;;;;;1.20;1.00;;;17.20;24.90;;;;;;5058837;28;20533;-79
2022/04/12 09:47:44;;;;;;;1.20;1.10;;;17.30;24.20;;;;;;5056485;28;20461;-79
2022/04/12 09:50:33;;;;;;;1.93;1.17;;;17.40;23.00;;;;;;5057227;28;21301;-78
2022/04/12 09:53:09;;;;;;;1.20;1.10;;;17.40;22.10;;;;;;5055544;28;20481;-78
2022/04/12 09:55:40;;;;;;;3.30;1.30;;;17.40;20.90;;;;;;5061819;28;20458;-78
2022/04/12 09:58:13;;;;;;;1.73;0.90;;;17.50;19.70;;;;;;5057376;28;20450;-78
2022/04/12 10:00:43;;;;;;;1.20;1.00;;;17.50;21.00;;;;;;5059992;28;20477;-79
2022/04/12 10:03:13;;;;;;;1.10;1.00;;;17.60;19.30;;;;;;5057523;28;20965;-79
2022/04/12 10:05:42;;;;;;;1.37;1.00;;;17.60;19.30;;;;;;5058980;28;21020;-78
2022/04/12 10:08:12;;;;;;;0.90;0.90;;;17.60;20.40;;;;;;5056137;28;20458;-78
2022/04/12 10:10:42;;;;;;;3.53;1.20;;;17.60;20.60;;;;;;5053324;28;20460;-78
2022/04/12 10:13:13;;;;;;;0.80;0.80;;;17.70;18.60;;;;;;5059715;28;20482;-79
2022/04/12 10:15:43;;;;;;;1.33;0.90;;;17.70;19.20;;;;;;5058163;28;20474;-78
2022/04/12 10:18:12;;;;;;;0.93;0.80;;;17.80;20.80;;;;;;5066984;28;20458;-81
2022/04/12 10:20:41;;;;;;;1.50;0.80;;;17.90;25.70;;;;;;5070156;28;20819;-80
2022/04/12 10:23:16;;;;;;;3.30;1.00;;;17.90;23.70;;;;;;5067188;28;20461;-80
2022/04/12 10:25:44;;;;;;;2.83;0.77;;;18.00;19.90;;;;;;5061584;28;20473;-80
2022/04/12 10:28:15;;;;;;;1.00;0.80;;;18.00;20.60;;;;;;5064631;28;20454;-81
2022/04/12 10:30:43;;;;;;;1.03;0.80;;;18.00;19.10;;;;;;5064142;28;20447;-84
2022/04/12 10:33:20;;;;;;;1.57;1.20;;;18.00;20.50;;;;;;5058546;28;20479;-80
2022/04/12 10:35:59;;;;;;;1.80;1.70;;;18.10;21.80;;;;;;5069581;28;20458;-78
2022/04/12 10:38:39;;;;;;;2.37;1.60;;;18.30;21.90;;;;;;5067578;28;20494;-81
2022/04/12 10:41:23;;;;;;;1.43;1.33;;;18.30;21.40;;;;;;5063107;28;20958;-78
2022/04/12 10:43:58;;;;;;;2.03;1.37;;;18.30;21.80;;;;;;5058881;28;20474;-77
2022/04/12 10:46:46;;;;;;;1.03;0.93;;;18.30;20.30;;;;;;5056499;28;20450;-78
2022/04/12 10:49:17;;;;;;;2.90;1.00;;;18.30;20.40;;;;;;5056306;28;20462;-78
2022/04/12 10:51:46;;;;;;;1.30;1.00;;;18.50;21.00;;;;;;5062558;28;20462;-78
2022/04/12 10:54:29;;;;;;;1.00;0.90;;;18.50;23.00;;;;;;5058858;28;20516;-77
2022/04/12 10:57:21;;;;;;;1.40;0.70;;;18.70;22.90;;;;;;5061072;28;20906;-77
2022/04/12 10:59:53;;;;;;;2.13;1.00;;;18.70;23.20;;;;;;5059440;28;20468;-77
2022/04/12 11:02:21;;;;;;;1.50;0.90;;;18.80;23.20;;;;;;5060820;28;20500;-78
2022/04/12 11:04:50;;;;;;;0.67;0.67;;;18.80;23.00;;;;;;5059700;28;20501;-75
2022/04/12 11:07:35;;;;;;;0.93;0.83;;;18.90;24.80;;;;;;5063202;28;20458;-77
2022/04/12 11:10:21;;;;;;;1.00;0.87;;;18.80;24.10;;;;;;5062037;28;20581;-77
2022/04/12 11:12:51;;;;;;;1.30;0.90;;;18.90;24.00;;;;;;5058519;28;20531;-78
2022/04/12 11:15:29;;;;;;;3.30;0.90;;;19.00;25.50;;;;;;5061677;28;20470;-78
2022/04/12 11:18:11;;;;;;;1.23;1.10;;;19.00;26.70;;;;;;5058889;28;20458;-75
2022/04/12 11:20:41;;;;;;;1.57;0.93;;;19.20;27.90;;;;;;5060941;28;21041;-78
2022/04/12 11:23:12;;;;;;;1.63;1.20;;;19.20;27.70;;;;;;5061729;28;21004;-78
2022/04/12 11:25:48;;;;;;;1.33;0.93;;;19.20;27.40;;;;;;5061273;28;20458;-77
2022/04/12 11:28:21;;;;;;;1.13;1.13;;;19.30;28.10;;;;;;5057438;28;20463;-77
2022/04/12 11:30:58;;;;;;;1.10;1.00;;;19.30;28.80;;;;;;5056347;28;20472;-77
2022/04/12 11:33:28;;;;;;;1.30;0.90;;;19.40;28.50;;;;;;5064578;28;20508;-77
2022/04/12 11:35:57;;;;;;;1.20;0.90;;;19.40;27.90;;;;;;5060673;28;21080;-78
2022/04/12 11:38:26;;;;;;;0.80;0.80;;;19.40;28.30;;;;;;5061993;28;20463;-77
2022/04/12 11:41:02;;;;;;;0.87;0.87;;;19.40;27.80;;;;;;5067144;28;20479;-78
2022/04/12 11:43:30;;;;;;;0.80;0.77;;;19.50;29.60;;;;;;5063707;28;20461;-77
2022/04/12 11:46:01;;;;;;;0.80;0.80;;;19.40;29.20;;;;;;5066481;28;21023;-75
2022/04/12 11:48:30;;;;;;;1.77;0.83;;;19.40;27.00;;;;;;5061749;28;20494;-77
2022/04/12 11:51:06;;;;;;;1.00;0.90;;;19.40;26.40;;;;;;5057162;28;20462;-77
2022/04/12 11:53:34;;;;;;;0.80;0.80;;;19.50;28.10;;;;;;5060940;28;20485;-77
2022/04/12 11:56:04;;;;;;;1.77;1.63;;;19.50;29.60;;;;;;5059470;28;20466;-77
2022/04/12 11:58:33;;;;;;;0.97;0.90;;;19.70;28.70;;;;;;5063885;28;20485;-78
2022/04/12 12:01:02;;;;;;;0.80;0.80;;;19.70;29.30;;;;;;5066956;28;20443;-74
2022/04/12 12:03:31;;;;;;;1.03;0.90;;;19.70;29.60;;;;;;5068936;28;20458;-78
2022/04/12 12:05:59;;;;;;;1.93;0.93;;;19.70;29.30;;;;;;5068311;28;20446;-77
2022/04/12 12:08:28;;;;;;;1.00;0.90;;;19.70;28.20;;;;;;5068956;28;20446;-78
2022/04/12 12:10:56;;;;;;;2.03;0.90;;;19.70;41.50;;;;;;5067047;28;20446;-78
2022/04/12 12:13:25;;;;;;;1.10;1.00;;;19.70;28.30;;;;;;5054928;28;20902;-77
2022/04/12 12:15:53;;;;;;;0.80;0.80;;;19.70;27.80;;;;;;5059712;28;20483;-78
2022/04/12 12:18:23;;;;;;;1.50;0.90;;;19.70;28.90;;;;;;5065696;28;20991;-77
2022/04/12 12:20:51;;;;;;;0.87;0.87;;;19.70;28.50;;;;;;5069043;28;20473;-77
2022/04/12 12:23:21;;;;;;;0.80;0.80;;;19.80;29.20;;;;;;5060153;28;20479;-78
2022/04/12 12:25:56;;;;;;;0.70;0.70;;;19.90;30.00;;;;;;5062633;28;20455;-77
2022/04/12 12:28:26;;;;;;;0.93;0.80;;;20.00;30.20;;;;;;5062360;28;20560;-78
2022/04/12 12:30:59;;;;;;;1.27;0.80;;;20.00;29.80;;;;;;5065499;28;20451;-79
2022/04/12 12:33:41;;;;;;;1.50;1.00;;;20.00;31.30;;;;;;5068998;28;20470;-79
2022/04/12 12:36:28;;;;;;;1.83;0.83;;;20.00;28.80;;;;;;5064167;28;20489;-78
2022/04/12 12:38:56;;;;;;;1.00;0.90;;;20.10;32.90;;;;;;5064752;28;20458;-78
2022/04/12 12:41:26;;;;;;;1.03;0.80;;;20.20;33.00;;;;;;5070773;28;20469;-78
2022/04/12 12:43:56;;;;;;;0.90;0.80;;;20.20;33.00;;;;;;5060202;28;21038;-77
2022/04/12 12:46:26;;;;;;;0.90;0.90;;;20.20;34.80;;;;;;5066700;28;20442;-77
2022/04/12 12:49:12;;;;;;;0.83;0.80;;;20.20;31.30;;;;;;5069083;28;20859;-79
2022/04/12 12:51:41;;;;;;;1.27;0.80;;;20.20;30.90;;;;;;5071104;28;20485;-80
2022/04/12 12:54:14;;;;;;;1.27;0.80;;;20.20;30.30;;;;;;5068612;28;20900;-84
2022/04/12 12:56:45;;;;;;;1.80;1.00;;;20.20;29.90;;;;;;5068707;28;20515;-79
2022/04/12 12:59:16;;;;;;;0.93;0.80;;;20.10;29.60;;;;;;5067833;28;21000;-78
2022/04/12 13:01:46;;;;;;;0.80;0.80;;;20.20;33.80;;;;;;5058820;28;21193;-79
2022/04/12 13:04:24;;;;;;;1.00;0.80;;;20.20;31.80;;;;;;5060814;28;20474;-78
2022/04/12 13:07:06;;;;;;;0.87;0.80;;;20.20;32.40;;;;;;5067597;28;20450;-79